Climatologie pour Saint-Brevin les Pins
Jour • Résumé pour novembre 11, 2017 Système :  Anglais    Métrique   Mixte
« - 1 jour
+ 1 jour »
Jour Semaine Mois Année Personnalisé
  Maximum : Minimum : Moyenne :
Température sous abri : TemperatureC °F 10.8 °F 13.3 °F
Point de rosée : DewpointC °F 9.6 °F 11.9 °F
Humidité : Humidity % 88 % 91 %
Vitesse du vent : WindSpeedKMH mph 0.0 mph 12.4 mph
Rafale : WindSpeedGustKMH mph - -
Direction :- - WNW
Pression : PressurehPa in 1018.8 in -
Précipitations : 0.0 in    
Historical Graphs
 
 
Tableau de données pour novembre 11, 2017
Heure Tempé Pt rosée Pression Vent Vitesse Rafale Humidité Taux pluie (/hr) Soleil
TemperatureC °F DewpointC °F PressurehPa in Calm     Humidity % HourlyPrecipMM in SolarRadiationWatts/m^2 W/m2 Conditions
00:00 11.3 °F 9.9 °F 1027.0 in NW 4.8 mph 19.3 mph 91 % 0.0 in 0 W/m2
00:10 11.3 °F 9.9 °F 1027.0 in West 6.4 mph 14.5 mph 91 % 0.0 in 0 W/m2
00:15 11.3 °F 9.9 °F 1027.0 in WNW 1.6 mph 16.1 mph 91 % 0.0 in 0 W/m2
00:20 11.3 °F 9.9 °F 1027.0 in WNW 4.8 mph 16.1 mph 91 % 0.0 in 0 W/m2
00:25 11.4 °F 10.0 °F 1027.0 in WNW 1.6 mph 17.7 mph 91 % 0.0 in 0 W/m2
00:30 11.3 °F 9.9 °F 1027.0 in NW 6.4 mph 17.7 mph 91 % 0.0 in 0 W/m2
00:35 11.3 °F 9.7 °F 1027.0 in NW 4.8 mph 14.5 mph 90 % 0.0 in 0 W/m2
00:40 11.3 °F 9.9 °F 1026.6 in West 4.8 mph 14.5 mph 91 % 0.0 in 0 W/m2
00:45 11.3 °F 9.9 °F 1026.6 in NW 9.7 mph 12.9 mph 91 % 0.0 in 0 W/m2
00:50 11.3 °F 9.9 °F 1026.6 in West 11.3 mph 12.9 mph 91 % 0.0 in 0 W/m2
00:55 11.3 °F 9.9 °F 1027.0 in WNW 8.0 mph 12.9 mph 91 % 0.0 in 0 W/m2
01:00 11.3 °F 9.8 °F 1027.0 in WNW 3.2 mph 12.9 mph 90 % 0.0 in 0 W/m2
01:05 11.3 °F 9.9 °F 1027.0 in WNW 1.6 mph 12.9 mph 91 % 0.0 in 0 W/m2
01:10 11.3 °F 9.9 °F 1026.6 in WNW 9.7 mph 12.9 mph 91 % 0.0 in 0 W/m2
01:15 11.3 °F 9.9 °F 1026.6 in West 3.2 mph 9.7 mph 91 % 0.0 in 0 W/m2
01:20 11.2 °F 9.8 °F 1026.6 in West 1.6 mph 9.7 mph 91 % 0.0 in 0 W/m2
01:25 11.1 °F 9.6 °F 1026.3 in Calm   8.0 mph 91 % 0.0 in 0 W/m2
01:30 11.0 °F 9.7 °F 1026.3 in WNW 4.8 mph 8.0 mph 92 % 0.0 in 0 W/m2
01:35 10.9 °F 9.7 °F 1026.3 in WNW 3.2 mph 8.0 mph 92 % 0.0 in 0 W/m2
01:40 10.8 °F 9.6 °F 1026.3 in West 4.8 mph 8.0 mph 92 % 0.0 in 0 W/m2
01:45 10.8 °F 9.7 °F 1026.3 in WNW 1.6 mph 8.0 mph 93 % 0.0 in 0 W/m2
01:55 11.0 °F 9.9 °F 1026.0 in West 4.8 mph 6.4 mph 93 % 0.0 in 0 W/m2
02:00 11.2 °F 10.3 °F 1026.0 in WSW 6.4 mph 12.9 mph 94 % 0.0 in 0 W/m2
02:05 11.4 °F 10.3 °F 1026.0 in NW 3.2 mph 12.9 mph 93 % 0.0 in 0 W/m2
02:10 11.4 °F 10.4 °F 1026.0 in West 4.8 mph 8.0 mph 93 % 0.0 in 0 W/m2
02:15 11.7 °F 10.6 °F 1026.0 in NW 9.7 mph 11.3 mph 93 % 0.0 in 0 W/m2
02:20 11.9 °F 10.8 °F 1025.6 in NW 8.0 mph 12.9 mph 93 % 0.0 in 0 W/m2
02:25 12.1 °F 11.0 °F 1025.6 in NW 3.2 mph 12.9 mph 93 % 0.0 in 0 W/m2
02:30 12.3 °F 11.2 °F 1025.3 in NW 12.9 mph 12.9 mph 93 % 0.0 in 0 W/m2
02:35 12.3 °F 11.1 °F 1025.3 in WSW 9.7 mph 12.9 mph 92 % 0.0 in 0 W/m2
02:40 12.4 °F 11.2 °F 1024.9 in NW 9.7 mph 12.9 mph 92 % 0.0 in 0 W/m2
02:45 12.6 °F 11.3 °F 1024.9 in West 9.7 mph 12.9 mph 92 % 0.0 in 0 W/m2
02:50 12.7 °F 11.4 °F 1024.9 in WNW 12.9 mph 17.7 mph 92 % 0.0 in 0 W/m2
02:55 12.8 °F 11.5 °F 1024.9 in WNW 12.9 mph 17.7 mph 92 % 0.0 in 0 W/m2
03:00 12.8 °F 11.6 °F 1024.9 in West 8.0 mph 17.7 mph 92 % 0.0 in 0 W/m2
03:05 12.9 °F 11.7 °F 1024.9 in West 8.0 mph 19.3 mph 92 % 0.0 in 0 W/m2
03:10 13.0 °F 11.7 °F 1024.9 in West 14.5 mph 19.3 mph 92 % 0.0 in 0 W/m2
03:15 13.1 °F 11.8 °F 1024.9 in West 12.9 mph 19.3 mph 92 % 0.0 in 0 W/m2
03:20 13.1 °F 11.8 °F 1024.9 in WNW 11.3 mph 19.3 mph 92 % 0.0 in 0 W/m2
03:25 13.1 °F 11.8 °F 1024.6 in West 6.4 mph 20.9 mph 92 % 0.0 in 0 W/m2
03:30 13.1 °F 11.8 °F 1024.6 in West 12.9 mph 22.5 mph 92 % 0.0 in 0 W/m2
03:35 13.1 °F 11.8 °F 1024.6 in WNW 12.9 mph 24.1 mph 92 % 0.0 in 0 W/m2
03:40 13.0 °F 11.9 °F 1024.6 in WSW 9.7 mph 24.1 mph 93 % 0.0 in 0 W/m2
03:45 12.9 °F 11.8 °F 1024.6 in WNW 6.4 mph 19.3 mph 93 % 0.0 in 0 W/m2
03:50 13.0 °F 11.9 °F 1024.3 in West 14.5 mph 24.1 mph 93 % 0.0 in 0 W/m2
03:55 13.0 °F 11.9 °F 1024.3 in WNW 8.0 mph 24.1 mph 93 % 0.0 in 0 W/m2
04:00 13.1 °F 11.9 °F 1024.3 in NW 12.9 mph 24.1 mph 93 % 0.0 in 0 W/m2
04:05 13.1 °F 11.8 °F 1024.3 in WNW 8.0 mph 27.4 mph 92 % 0.0 in 0 W/m2
04:10 13.1 °F 11.8 °F 1024.3 in SW 11.3 mph 27.4 mph 92 % 0.0 in 0 W/m2
04:20 13.0 °F 11.7 °F 1024.3 in WNW 11.3 mph 29.0 mph 92 % 0.0 in 0 W/m2
04:25 13.1 °F 11.6 °F 1023.9 in NW 8.0 mph 29.0 mph 91 % 0.0 in 0 W/m2
04:30 13.1 °F 11.6 °F 1023.9 in WNW 6.4 mph 20.9 mph 91 % 0.0 in 0 W/m2
04:40 13.0 °F 11.6 °F 1023.9 in WNW 3.2 mph 25.7 mph 91 % 0.0 in 0 W/m2
04:45 13.1 °F 11.6 °F 1023.9 in WNW 9.7 mph 24.1 mph 91 % 0.0 in 0 W/m2
04:50 13.1 °F 11.5 °F 1023.9 in WNW 8.0 mph 27.4 mph 90 % 0.0 in 0 W/m2
04:55 13.1 °F 11.5 °F 1023.9 in West 11.3 mph 30.6 mph 90 % 0.0 in 0 W/m2
05:00 13.1 °F 11.5 °F 1023.9 in West 9.7 mph 30.6 mph 90 % 0.0 in 0 W/m2
05:05 13.0 °F 11.4 °F 1023.9 in NW 6.4 mph 22.5 mph 90 % 0.0 in 0 W/m2
05:10 13.0 °F 11.6 °F 1023.6 in NW 11.3 mph 22.5 mph 91 % 0.0 in 0 W/m2
05:15 13.0 °F 11.7 °F 1023.6 in WNW 8.0 mph 22.5 mph 92 % 0.0 in 0 W/m2
05:20 13.0 °F 11.7 °F 1023.6 in NW 12.9 mph 25.7 mph 92 % 0.0 in 0 W/m2
05:25 13.1 °F 11.8 °F 1023.6 in WNW 12.9 mph 25.7 mph 92 % 0.0 in 0 W/m2
05:30 12.9 °F 11.5 °F 1023.6 in NW 22.5 mph 33.8 mph 91 % 0.0 in 0 W/m2
05:35 12.7 °F 11.3 °F 1023.6 in NW 11.3 mph 33.8 mph 91 % 0.0 in 0 W/m2
05:45 12.6 °F 11.3 °F 1023.6 in NW 14.5 mph 19.3 mph 92 % 0.0 in 0 W/m2
05:50 12.6 °F 11.3 °F 1023.2 in West 14.5 mph 19.3 mph 92 % 0.0 in 0 W/m2
05:55 12.7 °F 11.5 °F 1023.2 in WNW 4.8 mph 20.9 mph 92 % 0.0 in 0 W/m2
06:00 12.8 °F 11.6 °F 1023.2 in WNW 11.3 mph 24.1 mph 92 % 0.0 in 0 W/m2
06:05 12.8 °F 11.5 °F 1023.6 in NW 11.3 mph 25.7 mph 92 % 0.0 in 0 W/m2
06:10 12.4 °F 11.3 °F 1023.2 in West 12.9 mph 25.7 mph 93 % 0.0 in 0 W/m2
06:15 12.3 °F 11.2 °F 1023.2 in WNW 4.8 mph 22.5 mph 93 % 0.0 in 0 W/m2
06:20 12.3 °F 11.2 °F 1023.2 in West 3.2 mph 25.7 mph 93 % 0.0 in 0 W/m2
06:25 12.4 °F 11.3 °F 1023.2 in WNW 6.4 mph 25.7 mph 93 % 0.0 in 0 W/m2
06:30 12.4 °F 11.3 °F 1023.2 in NW 3.2 mph 19.3 mph 93 % 0.0 in 0 W/m2
06:35 12.5 °F 11.4 °F 1022.9 in West 6.4 mph 17.7 mph 93 % 0.0 in 0 W/m2
06:40 12.6 °F 11.3 °F 1022.9 in West 14.5 mph 17.7 mph 92 % 0.0 in 0 W/m2
06:45 12.7 °F 11.2 °F 1022.6 in WSW 14.5 mph 22.5 mph 91 % 0.0 in 0 W/m2
06:50 12.9 °F 11.3 °F 1022.9 in West 17.7 mph 22.5 mph 90 % 0.0 in 0 W/m2
06:55 13.0 °F 11.2 °F 1022.6 in WNW 3.2 mph 27.4 mph 89 % 0.0 in 0 W/m2
07:00 13.1 °F 11.3 °F 1022.6 in WNW 12.9 mph 27.4 mph 89 % 0.0 in 0 W/m2
07:10 13.1 °F 11.6 °F 1022.6 in WNW 19.3 mph 24.1 mph 91 % 0.0 in 0 W/m2
07:15 13.1 °F 11.6 °F 1022.6 in NW 16.1 mph 30.6 mph 91 % 0.0 in 0 W/m2
07:20 13.0 °F 11.6 °F 1022.6 in WNW 12.9 mph 30.6 mph 91 % 0.0 in 0 W/m2
07:25 13.0 °F 11.6 °F 1022.6 in West 9.7 mph 25.7 mph 91 % 0.0 in 0 W/m2
07:30 12.9 °F 11.5 °F 1022.2 in NW 8.0 mph 20.9 mph 91 % 0.0 in 0 W/m2
07:35 13.0 °F 11.6 °F 1022.2 in West 9.7 mph 19.3 mph 91 % 0.0 in 0 W/m2
07:40 13.0 °F 11.6 °F 1022.2 in WNW 11.3 mph 19.3 mph 91 % 0.0 in 0 W/m2
07:45 13.1 °F 11.5 °F 1022.2 in WNW 16.1 mph 29.0 mph 90 % 0.0 in 0 W/m2
07:50 13.2 °F 11.6 °F 1022.2 in WNW 12.9 mph 30.6 mph 90 % 0.0 in 0 W/m2
08:00 13.3 °F 11.7 °F 1022.2 in West 20.9 mph 30.6 mph 90 % 0.0 in 0 W/m2
08:05 13.4 °F 11.8 °F 1022.2 in NW 14.5 mph 30.6 mph 90 % 0.0 in 0 W/m2
08:10 13.4 °F 12.0 °F 1022.2 in WNW 12.9 mph 32.2 mph 91 % 0.0 in 0 W/m2
08:20 13.2 °F 12.0 °F 1022.2 in NW 11.3 mph 30.6 mph 92 % 0.0 in 0 W/m2
08:25 13.1 °F 11.8 °F 1021.9 in West 12.9 mph 32.2 mph 92 % 0.0 in 11 W/m2
08:30 13.1 °F 11.8 °F 1021.9 in WNW 14.5 mph 32.2 mph 92 % 0.0 in 18 W/m2
08:35 13.1 °F 11.8 °F 1021.9 in West 9.7 mph 29.0 mph 92 % 0.0 in 19 W/m2
08:40 13.1 °F 11.8 °F 1021.9 in WNW 20.9 mph 20.9 mph 92 % 0.0 in 16 W/m2
08:45 13.1 °F 11.7 °F 1021.9 in WNW 11.3 mph 20.9 mph 91 % 0.0 in 16 W/m2
08:50 13.1 °F 11.7 °F 1022.2 in WNW 9.7 mph 22.5 mph 91 % 0.0 in 21 W/m2
08:55 13.2 °F 11.6 °F 1022.2 in West 6.4 mph 22.5 mph 90 % 0.0 in 21 W/m2
09:00 13.2 °F 11.6 °F 1022.2 in WNW 11.3 mph 25.7 mph 90 % 0.0 in 18 W/m2
09:05 13.3 °F 11.6 °F 1021.9 in NW 8.0 mph 25.7 mph 89 % 0.0 in 16 W/m2
09:10 13.4 °F 11.6 °F 1021.9 in WNW 9.7 mph 22.5 mph 89 % 0.0 in 23 W/m2
09:15 13.4 °F 11.8 °F 1021.9 in WNW 9.7 mph 24.1 mph 90 % 0.0 in 14 W/m2
09:20 13.4 °F 11.8 °F 1021.9 in West 12.9 mph 24.1 mph 90 % 0.0 in 14 W/m2
09:25 13.3 °F 11.9 °F 1021.9 in WNW 17.7 mph 24.1 mph 91 % 0.0 in 14 W/m2
09:30 13.2 °F 11.9 °F 1021.9 in West 8.0 mph 32.2 mph 92 % 0.0 in 28 W/m2
09:35 13.1 °F 12.0 °F 1021.9 in WNW 8.0 mph 32.2 mph 93 % 0.0 in 84 W/m2
09:40 13.2 °F 12.1 °F 1021.9 in NW 6.4 mph 22.5 mph 93 % 0.0 in 56 W/m2
09:45 13.3 °F 12.2 °F 1021.9 in West 19.3 mph 32.2 mph 93 % 0.0 in 32 W/m2
09:50 13.3 °F 12.2 °F 1021.6 in NW 16.1 mph 32.2 mph 93 % 0.0 in 65 W/m2
09:55 13.3 °F 12.2 °F 1021.6 in NW 11.3 mph 32.2 mph 93 % 0.0 in 58 W/m2
10:00 13.4 °F 12.3 °F 1021.9 in SW 11.3 mph 27.4 mph 93 % 0.0 in 70 W/m2
10:05 13.4 °F 12.3 °F 1021.6 in West 11.3 mph 25.7 mph 93 % 0.0 in 53 W/m2
10:10 13.6 °F 12.4 °F 1021.6 in West 24.1 mph 24.1 mph 93 % 0.0 in 53 W/m2
10:15 13.6 °F 12.3 °F 1021.6 in West 14.5 mph 25.7 mph 92 % 0.0 in 19 W/m2
10:20 13.6 °F 12.3 °F 1021.6 in WNW 11.3 mph 25.7 mph 92 % 0.0 in 23 W/m2
10:25 13.6 °F 12.3 °F 1021.6 in West 16.1 mph 25.7 mph 92 % 0.0 in 30 W/m2
10:30 13.6 °F 12.3 °F 1021.6 in WNW 12.9 mph 29.0 mph 92 % 0.0 in 30 W/m2
10:35 13.6 °F 12.3 °F 1021.6 in NW 16.1 mph 29.0 mph 92 % 0.0 in 44 W/m2
10:40 13.7 °F 12.6 °F 1021.6 in West 27.4 mph 32.2 mph 93 % 0.0 in 28 W/m2
10:45 13.7 °F 12.6 °F 1021.6 in NW 11.3 mph 32.2 mph 93 % 0.0 in 42 W/m2
10:50 13.7 °F 12.6 °F 1021.6 in West 24.1 mph 30.6 mph 93 % 0.0 in 49 W/m2
10:55 13.7 °F 12.6 °F 1021.2 in West 22.5 mph 33.8 mph 93 % 0.0 in 67 W/m2
11:00 13.8 °F 12.7 °F 1021.2 in WNW 12.9 mph 33.8 mph 93 % 0.0 in 63 W/m2
11:05 13.8 °F 12.7 °F 1021.2 in WNW 20.9 mph 30.6 mph 93 % 0.0 in 69 W/m2
11:10 13.8 °F 12.7 °F 1021.2 in NW 8.0 mph 30.6 mph 93 % 0.0 in 88 W/m2
11:15 13.8 °F 12.7 °F 1021.2 in West 8.0 mph 32.2 mph 93 % 0.0 in 113 W/m2
11:20 13.9 °F 12.8 °F 1021.2 in WNW 12.9 mph 32.2 mph 93 % 0.0 in 74 W/m2
11:25 13.9 °F 12.8 °F 1021.2 in NW 6.4 mph 27.4 mph 93 % 0.0 in 40 W/m2
11:30 13.9 °F 12.8 °F 1021.2 in WNW 20.9 mph 32.2 mph 93 % 0.0 in 53 W/m2
11:35 14.0 °F 12.9 °F 1021.2 in West 19.3 mph 32.2 mph 93 % 0.0 in 74 W/m2
11:40 14.1 °F 12.9 °F 1021.2 in WSW 12.9 mph 32.2 mph 93 % 0.0 in 84 W/m2
11:45 14.1 °F 13.0 °F 1020.9 in West 9.7 mph 32.2 mph 93 % 0.0 in 56 W/m2
11:50 14.1 °F 13.0 °F 1020.9 in NW 20.9 mph 25.7 mph 93 % 0.0 in 70 W/m2
11:55 14.2 °F 13.1 °F 1020.9 in NW 16.1 mph 27.4 mph 93 % 0.0 in 54 W/m2
12:00 14.2 °F 12.9 °F 1020.9 in WNW 17.7 mph 35.4 mph 92 % 0.0 in 56 W/m2
12:05 14.2 °F 12.9 °F 1020.9 in WNW 11.3 mph 35.4 mph 92 % 0.0 in 123 W/m2
12:10 14.3 °F 13.0 °F 1020.9 in West 17.7 mph 33.8 mph 92 % 0.0 in 72 W/m2
12:15 14.3 °F 13.1 °F 1020.5 in NW 12.9 mph 32.2 mph 92 % 0.0 in 123 W/m2
12:25 14.6 °F 13.3 °F 1020.5 in WNW 20.9 mph 35.4 mph 92 % 0.0 in 153 W/m2
12:30 14.6 °F 13.3 °F 1020.5 in WNW 16.1 mph 40.2 mph 92 % 0.0 in 134 W/m2
12:35 14.5 °F 13.0 °F 1020.5 in WNW 8.0 mph 40.2 mph 91 % 0.0 in 148 W/m2
12:40 14.5 °F 13.0 °F 1020.5 in WNW 11.3 mph 33.8 mph 91 % 0.0 in 137 W/m2
12:45 14.6 °F 12.9 °F 1020.5 in WNW 22.5 mph 32.2 mph 90 % 0.0 in 146 W/m2
12:50 14.6 °F 13.0 °F 1020.2 in WNW 19.3 mph 32.2 mph 90 % 0.0 in 128 W/m2
12:55 14.6 °F 13.0 °F 1020.2 in WNW 12.9 mph 45.1 mph 90 % 0.0 in 121 W/m2
13:00 14.7 °F 13.1 °F 1020.2 in NW 25.7 mph 45.1 mph 90 % 0.0 in 271 W/m2
13:05 14.9 °F 13.1 °F 1020.2 in NW 24.1 mph 38.6 mph 89 % 0.0 in 183 W/m2
13:10 15.0 °F 13.2 °F 1020.2 in WNW 14.5 mph 38.6 mph 89 % 0.0 in 209 W/m2
13:15 15.0 °F 13.0 °F 1020.2 in WNW 17.7 mph 46.7 mph 88 % 0.0 in 155 W/m2
13:20 14.9 °F 13.1 °F 1019.9 in West 12.9 mph 46.7 mph 89 % 0.0 in 102 W/m2
13:25 14.8 °F 13.0 °F 1019.9 in West 12.9 mph 37.0 mph 89 % 0.0 in 116 W/m2
13:30 14.8 °F 13.0 °F 1019.9 in WNW 22.5 mph 35.4 mph 89 % 0.0 in 135 W/m2
13:35 14.8 °F 13.0 °F 1019.9 in WNW 12.9 mph 35.4 mph 89 % 0.0 in 116 W/m2
13:40 14.8 °F 13.0 °F 1019.9 in NW 14.5 mph 40.2 mph 89 % 0.0 in 102 W/m2
13:45 14.7 °F 13.0 °F 1019.9 in West 17.7 mph 40.2 mph 90 % 0.0 in 84 W/m2
13:50 14.6 °F 12.9 °F 1019.9 in WNW 11.3 mph 30.6 mph 90 % 0.0 in 91 W/m2
13:55 14.6 °F 12.9 °F 1019.5 in West 22.5 mph 40.2 mph 90 % 0.0 in 105 W/m2
14:00 14.5 °F 13.0 °F 1019.5 in WNW 14.5 mph 40.2 mph 91 % 0.0 in 125 W/m2
14:05 14.6 °F 12.9 °F 1019.5 in West 6.4 mph 40.2 mph 90 % 0.0 in 123 W/m2
14:10 14.5 °F 12.9 °F 1019.5 in WNW 25.7 mph 43.4 mph 90 % 0.0 in 72 W/m2
14:15 14.4 °F 12.8 °F 1019.5 in WNW 12.9 mph 43.4 mph 90 % 0.0 in 97 W/m2
14:20 14.4 °F 12.8 °F 1019.5 in NW 20.9 mph 38.6 mph 90 % 0.0 in 97 W/m2
14:25 14.4 °F 12.8 °F 1019.2 in NW 25.7 mph 38.6 mph 90 % 0.0 in 114 W/m2
14:30 14.4 °F 12.8 °F 1019.5 in WNW 11.3 mph 43.4 mph 90 % 0.0 in 90 W/m2
14:35 14.4 °F 12.8 °F 1019.2 in West 19.3 mph 43.4 mph 90 % 0.0 in 83 W/m2
14:40 14.3 °F 12.7 °F 1019.2 in NW 11.3 mph 40.2 mph 90 % 0.0 in 74 W/m2
14:45 14.3 °F 12.7 °F 1019.2 in WNW 17.7 mph 40.2 mph 90 % 0.0 in 88 W/m2
14:50 14.4 °F 12.8 °F 1019.2 in NNW 14.5 mph 40.2 mph 90 % 0.0 in 118 W/m2
14:55 14.4 °F 12.8 °F 1019.2 in West 14.5 mph 32.2 mph 90 % 0.0 in 72 W/m2
15:00 14.3 °F 12.7 °F 1019.2 in NW 12.9 mph 40.2 mph 90 % 0.0 in 81 W/m2
15:05 14.3 °F 12.7 °F 1019.2 in WNW 17.7 mph 40.2 mph 90 % 0.0 in 58 W/m2
15:10 14.3 °F 12.7 °F 1019.2 in WNW 20.9 mph 37.0 mph 90 % 0.0 in 60 W/m2
15:15 14.3 °F 12.7 °F 1018.8 in WNW 20.9 mph 38.6 mph 90 % 0.0 in 83 W/m2
15:20 14.3 °F 12.7 °F 1019.2 in NW 11.3 mph 38.6 mph 90 % 0.0 in 116 W/m2
15:25 14.4 °F 12.8 °F 1018.8 in WSW 12.9 mph 33.8 mph 90 % 0.0 in 139 W/m2
15:30 14.5 °F 12.9 °F 1018.8 in SW 6.4 mph 33.8 mph 90 % 0.0 in 142 W/m2
15:35 14.5 °F 12.9 °F 1018.8 in West 16.1 mph 33.8 mph 90 % 0.0 in 77 W/m2
15:40 14.4 °F 12.8 °F 1018.8 in NNW 9.7 mph 38.6 mph 90 % 0.0 in 53 W/m2
15:45 14.3 °F 12.7 °F 1019.2 in NW 17.7 mph 38.6 mph 90 % 0.0 in 33 W/m2
15:50 14.2 °F 12.5 °F 1018.8 in WNW 9.7 mph 33.8 mph 90 % 0.0 in 30 W/m2
15:55 14.1 °F 12.5 °F 1018.8 in WNW 16.1 mph 33.8 mph 90 % 0.0 in 28 W/m2
16:00 14.1 °F 12.6 °F 1018.8 in NW 17.7 mph 37.0 mph 91 % 0.0 in 46 W/m2
16:05 14.1 °F 12.4 °F 1018.8 in WNW 32.2 mph 41.8 mph 90 % 0.0 in 46 W/m2
16:10 14.1 °F 12.4 °F 1018.8 in West 20.9 mph 43.4 mph 90 % 0.0 in 54 W/m2
16:15 14.1 °F 12.5 °F 1018.8 in WNW 9.7 mph 43.4 mph 90 % 0.0 in 46 W/m2
16:20 14.1 °F 12.5 °F 1018.8 in WNW 12.9 mph 35.4 mph 90 % 0.0 in 35 W/m2
16:25 14.0 °F 12.4 °F 1018.8 in WNW 25.7 mph 35.4 mph 90 % 0.0 in 35 W/m2
16:30 13.9 °F 12.3 °F 1018.8 in WNW 14.5 mph 29.0 mph 90 % 0.0 in 39 W/m2
16:35 13.8 °F 12.4 °F 1018.8 in NNW 20.9 mph 32.2 mph 91 % 0.0 in 23 W/m2
16:40 13.8 °F 12.3 °F 1019.2 in NW 27.4 mph 33.8 mph 91 % 0.0 in 26 W/m2
16:45 13.8 °F 12.3 °F 1018.8 in West 16.1 mph 37.0 mph 91 % 0.0 in 25 W/m2
16:50 13.8 °F 12.3 °F 1018.8 in WNW 14.5 mph 37.0 mph 91 % 0.0 in 25 W/m2
17:00 13.8 °F 12.3 °F 1018.8 in NW 11.3 mph 38.6 mph 91 % 0.0 in 14 W/m2
17:05 13.8 °F 12.3 °F 1019.2 in WNW 8.0 mph 38.6 mph 91 % 0.0 in 11 W/m2
17:10 13.8 °F 12.3 °F 1018.8 in NNW 12.9 mph 29.0 mph 91 % 0.0 in 7 W/m2
17:15 13.8 °F 12.3 °F 1019.2 in WNW 16.1 mph 24.1 mph 91 % 0.0 in 9 W/m2
17:20 13.7 °F 12.2 °F 1019.2 in NW 17.7 mph 27.4 mph 91 % 0.0 in 7 W/m2
17:25 13.6 °F 12.2 °F 1019.2 in WNW 22.5 mph 30.6 mph 91 % 0.0 in 5 W/m2
17:30 13.6 °F 12.0 °F 1019.2 in WNW 9.7 mph 32.2 mph 90 % 0.0 in 5 W/m2
17:35 13.6 °F 12.0 °F 1019.2 in NNW 16.1 mph 33.8 mph 90 % 0.0 in 0 W/m2
17:40 13.7 °F 11.9 °F 1019.2 in WNW 12.9 mph 33.8 mph 89 % 0.0 in 0 W/m2
17:50 13.6 °F 11.8 °F 1019.2 in WNW 14.5 mph 32.2 mph 89 % 0.0 in 0 W/m2
17:55 13.7 °F 11.9 °F 1019.2 in WNW 20.9 mph 32.2 mph 89 % 0.0 in 0 W/m2
18:00 13.7 °F 11.9 °F 1019.2 in WNW 17.7 mph 32.2 mph 89 % 0.0 in 0 W/m2
18:05 13.6 °F 11.8 °F 1019.2 in WNW 8.0 mph 38.6 mph 89 % 0.0 in 0 W/m2
18:10 13.6 °F 11.8 °F 1019.2 in West 22.5 mph 38.6 mph 89 % 0.0 in 0 W/m2
18:15 13.7 °F 11.9 °F 1019.2 in WNW 14.5 mph 37.0 mph 89 % 0.0 in 0 W/m2
18:20 13.6 °F 11.8 °F 1019.2 in WNW 40.2 mph 43.4 mph 89 % 0.0 in 0 W/m2
18:25 13.5 °F 11.7 °F 1019.2 in WNW 14.5 mph 43.4 mph 89 % 0.0 in 0 W/m2
18:30 13.5 °F 11.7 °F 1019.2 in WNW 12.9 mph 41.8 mph 89 % 0.0 in 0 W/m2
18:35 13.6 °F 11.8 °F 1019.2 in NW 14.5 mph 35.4 mph 89 % 0.0 in 0 W/m2
18:40 13.6 °F 11.9 °F 1019.2 in NW 14.5 mph 32.2 mph 90 % 0.0 in 0 W/m2
18:45 13.6 °F 11.9 °F 1019.2 in WNW 16.1 mph 38.6 mph 90 % 0.0 in 0 W/m2
18:50 13.6 °F 11.9 °F 1019.5 in WNW 30.6 mph 38.6 mph 90 % 0.0 in 0 W/m2
18:55 13.6 °F 11.8 °F 1019.2 in WNW 11.3 mph 38.6 mph 89 % 0.0 in 0 W/m2
19:00 13.6 °F 11.8 °F 1019.5 in NW 16.1 mph 37.0 mph 89 % 0.0 in 0 W/m2
19:05 13.7 °F 11.9 °F 1019.5 in WNW 19.3 mph 30.6 mph 89 % 0.0 in 0 W/m2
19:10 13.6 °F 11.8 °F 1019.5 in WNW 11.3 mph 30.6 mph 89 % 0.0 in 0 W/m2
19:15 13.6 °F 11.8 °F 1019.5 in NW 14.5 mph 27.4 mph 89 % 0.0 in 0 W/m2
19:20 13.6 °F 11.8 °F 1019.5 in WNW 12.9 mph 33.8 mph 89 % 0.0 in 0 W/m2
19:25 13.6 °F 11.8 °F 1019.5 in WNW 9.7 mph 33.8 mph 89 % 0.0 in 0 W/m2
19:30 13.6 °F 11.8 °F 1019.5 in WNW 4.8 mph 35.4 mph 89 % 0.0 in 0 W/m2
19:35 13.4 °F 11.8 °F 1019.5 in West 11.3 mph 35.4 mph 90 % 0.0 in 0 W/m2
19:40 13.3 °F 11.7 °F 1019.5 in WNW 17.7 mph 35.4 mph 90 % 0.0 in 0 W/m2
19:45 13.3 °F 11.8 °F 1019.5 in NW 6.4 mph 27.4 mph 91 % 0.0 in 0 W/m2
19:50 13.3 °F 11.8 °F 1019.5 in NNW 9.7 mph 24.1 mph 91 % 0.0 in 0 W/m2
19:55 13.3 °F 11.8 °F 1019.5 in WNW 14.5 mph 24.1 mph 91 % 0.0 in 0 W/m2
20:00 13.3 °F 11.8 °F 1019.5 in NW 14.5 mph 24.1 mph 91 % 0.0 in 0 W/m2
20:10 13.3 °F 11.8 °F 1019.2 in WNW 4.8 mph 29.0 mph 91 % 0.0 in 0 W/m2
20:15 13.3 °F 11.7 °F 1019.2 in West 9.7 mph 29.0 mph 90 % 0.0 in 0 W/m2
20:20 13.4 °F 11.8 °F 1019.2 in WNW 25.7 mph 32.2 mph 90 % 0.0 in 0 W/m2
20:25 13.4 °F 11.7 °F 1019.2 in West 11.3 mph 32.2 mph 89 % 0.0 in 0 W/m2
20:30 13.4 °F 11.7 °F 1019.2 in WNW 8.0 mph 33.8 mph 89 % 0.0 in 0 W/m2
20:35 13.5 °F 11.7 °F 1019.5 in WNW 12.9 mph 33.8 mph 89 % 0.0 in 0 W/m2
20:40 13.4 °F 11.8 °F 1019.5 in West 17.7 mph 25.7 mph 90 % 0.0 in 0 W/m2
20:45 13.3 °F 11.9 °F 1019.5 in NW 8.0 mph 24.1 mph 91 % 0.0 in 0 W/m2
20:50 13.2 °F 11.8 °F 1019.5 in NW 8.0 mph 29.0 mph 91 % 0.0 in 0 W/m2
20:55 13.2 °F 11.7 °F 1019.5 in NW 12.9 mph 29.0 mph 91 % 0.0 in 0 W/m2
21:00 13.2 °F 11.8 °F 1019.5 in NNW 11.3 mph 29.0 mph 91 % 0.0 in 0 W/m2
21:05 13.2 °F 11.8 °F 1019.5 in NW 12.9 mph 22.5 mph 91 % 0.0 in 0 W/m2
21:10 13.2 °F 11.9 °F 1019.5 in NW 11.3 mph 27.4 mph 92 % 0.0 in 0 W/m2
21:15 13.2 °F 11.8 °F 1019.5 in West 11.3 mph 27.4 mph 91 % 0.0 in 0 W/m2
21:20 13.3 °F 11.8 °F 1019.2 in NNW 4.8 mph 20.9 mph 91 % 0.0 in 0 W/m2
21:25 13.3 °F 11.9 °F 1019.2 in WNW 4.8 mph 19.3 mph 91 % 0.0 in 0 W/m2
21:30 13.4 °F 11.9 °F 1019.5 in West 12.9 mph 17.7 mph 91 % 0.0 in 0 W/m2
21:35 13.4 °F 11.9 °F 1019.2 in NW 9.7 mph 20.9 mph 91 % 0.0 in 0 W/m2
21:40 13.3 °F 11.9 °F 1019.2 in WNW 3.2 mph 20.9 mph 91 % 0.0 in 0 W/m2
21:45 13.3 °F 11.8 °F 1019.2 in West 8.0 mph 17.7 mph 91 % 0.0 in 0 W/m2
21:50 13.3 °F 12.0 °F 1019.2 in WNW 6.4 mph 16.1 mph 92 % 0.0 in 0 W/m2
21:55 13.3 °F 12.1 °F 1019.2 in NW 8.0 mph 17.7 mph 92 % 0.0 in 0 W/m2
22:00 13.4 °F 12.1 °F 1019.2 in WNW 8.0 mph 19.3 mph 92 % 0.0 in 0 W/m2
22:05 13.4 °F 12.2 °F 1019.2 in WNW 3.2 mph 19.3 mph 92 % 0.0 in 0 W/m2
22:10 13.4 °F 12.2 °F 1019.2 in West 6.4 mph 19.3 mph 92 % 0.0 in 0 W/m2
22:20 13.4 °F 12.2 °F 1019.2 in WNW 6.4 mph 19.3 mph 92 % 0.0 in 0 W/m2
22:25 13.5 °F 12.2 °F 1018.8 in West 11.3 mph 17.7 mph 92 % 0.0 in 0 W/m2
22:30 13.4 °F 12.2 °F 1018.8 in WNW 6.4 mph 20.9 mph 92 % 0.0 in 0 W/m2
22:35 13.4 °F 12.2 °F 1018.8 in WSW 11.3 mph 20.9 mph 92 % 0.0 in 0 W/m2
22:40 13.5 °F 12.2 °F 1018.8 in WNW 14.5 mph 25.7 mph 92 % 0.0 in 0 W/m2
22:45 13.5 °F 12.2 °F 1018.8 in WNW 4.8 mph 25.7 mph 92 % 0.0 in 0 W/m2
22:50 13.5 °F 12.2 °F 1019.2 in West 8.0 mph 25.7 mph 92 % 0.0 in 0 W/m2
22:55 13.6 °F 12.3 °F 1018.8 in NW 9.7 mph 25.7 mph 92 % 0.0 in 0 W/m2
23:00 13.6 °F 12.3 °F 1018.8 in WNW 16.1 mph 20.9 mph 92 % 0.0 in 0 W/m2
23:05 13.6 °F 12.3 °F 1018.8 in WNW 9.7 mph 20.9 mph 92 % 0.0 in 0 W/m2
23:10 13.6 °F 12.3 °F 1018.8 in WNW 12.9 mph 22.5 mph 92 % 0.0 in 0 W/m2
23:15 13.6 °F 12.3 °F 1018.8 in WNW 8.0 mph 24.1 mph 92 % 0.0 in 0 W/m2
23:20 13.6 °F 12.3 °F 1018.8 in West 11.3 mph 24.1 mph 92 % 0.0 in 0 W/m2
23:25 13.6 °F 12.3 °F 1018.8 in NW 14.5 mph 20.9 mph 92 % 0.0 in 0 W/m2
23:30 13.6 °F 12.3 °F 1018.8 in NW 14.5 mph 30.6 mph 92 % 0.0 in 0 W/m2
23:35 13.6 °F 12.3 °F 1018.8 in West 9.7 mph 30.6 mph 92 % 0.0 in 0 W/m2
23:40 13.5 °F 12.2 °F 1018.8 in NNW 25.7 mph 25.7 mph 92 % 0.0 in 0 W/m2
23:45 13.4 °F 12.2 °F 1018.8 in NW 14.5 mph 25.7 mph 92 % 0.0 in 0 W/m2
23:50 13.4 °F 12.2 °F 1018.8 in NW 8.0 mph 25.7 mph 92 % 0.0 in 0 W/m2
23:55 13.4 °F 12.2 °F 1018.8 in NW 11.3 mph 22.5 mph 92 % 0.0 in 0 W/m2
Avec l'autorisation de Weather Underground - 1.75 mb